createdAt,value
2019-03-15T00:03:47.528Z,13.60
2019-03-15T00:06:35.339Z,16.30
2019-03-15T00:09:24.731Z,12.93
2019-03-15T00:12:12.540Z,12.83
2019-03-15T00:14:53.624Z,15.80
2019-03-15T00:17:22.072Z,10.40
2019-03-15T00:20:09.966Z,11.47
2019-03-15T00:22:38.507Z,20.87
2019-03-15T00:25:26.293Z,10.17
2019-03-15T00:28:14.117Z,13.60
2019-03-15T00:31:01.928Z,14.17
2019-03-15T00:33:42.229Z,14.57
2019-03-15T00:36:23.227Z,14.30
2019-03-15T00:39:04.418Z,11.13
2019-03-15T00:41:44.723Z,9.93
2019-03-15T00:44:25.506Z,10.37
2019-03-15T00:47:06.561Z,12.57
2019-03-15T00:49:47.614Z,9.67
2019-03-15T00:52:28.755Z,11.13
2019-03-15T00:55:09.837Z,10.67
2019-03-15T00:57:50.618Z,9.90
2019-03-15T01:00:31.191Z,12.83
2019-03-15T01:03:12.008Z,11.73
2019-03-15T01:05:52.908Z,13.50
2019-03-15T01:08:33.755Z,9.63
2019-03-15T01:11:14.477Z,8.53
2019-03-15T01:13:55.173Z,14.13
2019-03-15T01:16:36.270Z,11.17
2019-03-15T01:19:17.841Z,9.63
2019-03-15T01:21:58.577Z,12.27
2019-03-15T01:24:39.611Z,12.37
2019-03-15T01:27:08.065Z,12.63
2019-03-15T01:29:55.957Z,9.03
2019-03-15T01:32:43.508Z,8.30
2019-03-15T01:35:23.976Z,14.53
2019-03-15T01:38:05.149Z,12.77
2019-03-15T01:40:48.592Z,14.07
2019-03-15T01:43:28.622Z,13.83
2019-03-15T01:46:09.650Z,13.73
2019-03-15T01:48:50.627Z,16.67
2019-03-15T01:51:31.600Z,12.17
2019-03-15T01:54:13.592Z,17.07
2019-03-15T01:56:54.806Z,10.87
2019-03-15T01:59:35.592Z,12.33
2019-03-15T02:02:16.686Z,10.90
2019-03-15T02:04:45.159Z,8.67
2019-03-15T02:10:34.700Z,12.20
2019-03-15T02:15:37.560Z,15.80
2019-03-15T02:21:14.585Z,17.00
2019-03-15T02:23:55.240Z,16.00
2019-03-15T02:26:36.053Z,16.40
2019-03-15T02:29:17.013Z,18.63
2019-03-15T02:34:58.754Z,14.40
2019-03-15T02:37:27.292Z,17.33
2019-03-15T02:40:15.287Z,14.07
2019-03-15T02:42:56.476Z,16.60
2019-03-15T02:45:24.932Z,15.97
2019-03-15T02:48:13.567Z,14.13
2019-03-15T02:50:43.248Z,10.87
2019-03-15T02:53:13.220Z,14.50
2019-03-15T02:56:01.015Z,13.07
2019-03-15T02:58:48.825Z,14.80
2019-03-15T03:01:29.784Z,13.60
2019-03-15T03:04:10.722Z,13.23
2019-03-15T03:06:51.606Z,15.77
2019-03-15T03:09:34.173Z,16.13
2019-03-15T03:12:15.040Z,15.03
2019-03-15T03:14:55.785Z,15.67
2019-03-15T03:17:36.645Z,13.47
2019-03-15T03:20:17.730Z,11.77
2019-03-15T03:22:58.261Z,13.70
2019-03-15T03:25:38.798Z,9.57
2019-03-15T03:28:19.592Z,12.80
2019-03-15T03:31:00.312Z,11.63
2019-03-15T03:33:42.039Z,12.73
2019-03-15T03:36:22.724Z,15.87
2019-03-15T03:39:03.954Z,20.30
2019-03-15T03:41:32.414Z,15.23
2019-03-15T03:44:20.234Z,11.60
2019-03-15T03:47:08.360Z,15.63
2019-03-15T03:49:37.110Z,13.70
2019-03-15T03:52:25.284Z,11.10
2019-03-15T03:55:13.442Z,13.00
2019-03-15T03:57:54.620Z,16.93
2019-03-15T04:00:35.498Z,12.30
2019-03-15T04:03:16.965Z,14.80
2019-03-15T04:05:58.315Z,12.60
2019-03-15T04:08:39.683Z,18.17
2019-03-15T04:11:20.623Z,15.93
2019-03-15T04:14:01.620Z,22.80
2019-03-15T04:16:42.410Z,15.90
2019-03-15T04:19:24.660Z,12.83
2019-03-15T04:22:05.473Z,12.80
2019-03-15T04:24:46.642Z,17.03
2019-03-15T04:27:15.516Z,16.63
2019-03-15T04:29:44.035Z,14.10
2019-03-15T04:32:32.129Z,16.30
2019-03-15T04:35:12.488Z,17.03
2019-03-15T04:37:40.951Z,16.80
2019-03-15T04:40:28.818Z,18.80
2019-03-15T04:43:09.387Z,21.50
2019-03-15T04:45:50.329Z,12.60
2019-03-15T04:48:18.791Z,11.57
2019-03-15T04:51:06.614Z,16.70
2019-03-15T04:53:54.399Z,16.53
2019-03-15T04:56:35.647Z,15.33
2019-03-15T04:59:16.181Z,18.17
2019-03-15T05:01:56.937Z,19.47
2019-03-15T05:04:37.567Z,14.03
2019-03-15T05:07:18.105Z,11.73
2019-03-15T05:09:59.036Z,17.37
2019-03-15T05:12:39.543Z,19.83
2019-03-15T05:15:20.538Z,14.37
2019-03-15T05:18:01.334Z,17.90
2019-03-15T05:20:41.951Z,18.27
2019-03-15T05:23:22.556Z,20.13
2019-03-15T05:25:51.093Z,17.73
2019-03-15T05:28:38.903Z,19.43
2019-03-15T05:31:26.716Z,18.90
2019-03-15T05:34:07.137Z,15.27
2019-03-15T05:36:48.048Z,15.83
2019-03-15T05:39:28.497Z,21.73
2019-03-15T05:42:08.871Z,20.83
2019-03-15T05:44:49.645Z,21.10
2019-03-15T05:47:30.543Z,20.27
2019-03-15T05:50:11.572Z,18.77
2019-03-15T05:52:52.132Z,17.90
2019-03-15T05:55:32.648Z,16.83
2019-03-15T05:58:01.196Z,22.63
2019-03-15T06:00:29.672Z,18.67
2019-03-15T06:02:58.223Z,27.77
2019-03-15T06:05:46.059Z,21.83
2019-03-15T06:08:27.716Z,18.83
2019-03-15T06:11:08.588Z,15.50
2019-03-15T06:13:37.104Z,21.33
2019-03-15T06:16:24.933Z,16.63
2019-03-15T06:19:12.804Z,21.10
2019-03-15T06:21:53.360Z,25.03
2019-03-15T06:24:34.186Z,21.70
2019-03-15T06:27:15.216Z,19.13
2019-03-15T06:29:56.021Z,16.50
2019-03-15T06:32:36.617Z,20.77
2019-03-15T06:35:17.301Z,18.40
2019-03-15T06:37:58.458Z,19.03
2019-03-15T06:40:39.108Z,18.23
2019-03-15T06:43:19.912Z,16.20
2019-03-15T06:46:00.985Z,15.17
2019-03-15T06:48:44.750Z,10.37
2019-03-15T06:51:24.502Z,11.60
2019-03-15T06:53:53.006Z,12.67
2019-03-15T06:56:40.785Z,11.63
2019-03-15T06:59:21.046Z,8.90
2019-03-15T07:01:50.645Z,9.40
2019-03-15T07:04:19.783Z,10.90
2019-03-15T07:07:00.415Z,13.97
2019-03-15T07:09:41.397Z,12.73
2019-03-15T07:12:22.213Z,11.87
2019-03-15T07:15:03.271Z,12.77
2019-03-15T07:17:44.280Z,10.57
2019-03-15T07:20:24.973Z,12.97
2019-03-15T07:23:05.958Z,10.90
2019-03-15T07:25:47.093Z,14.27
2019-03-15T07:28:15.668Z,12.33
2019-03-15T07:31:03.594Z,12.63
2019-03-15T07:33:51.404Z,11.50
2019-03-15T07:36:32.510Z,14.20
2019-03-15T07:39:13.191Z,16.37
2019-03-15T07:41:55.217Z,14.87
2019-03-15T07:44:35.764Z,16.77
2019-03-15T07:47:16.553Z,12.77
2019-03-15T07:49:45.059Z,18.52
2019-03-15T07:52:32.864Z,16.50
2019-03-15T07:55:01.364Z,17.30
2019-03-15T07:57:49.255Z,13.57
2019-03-15T08:00:37.052Z,15.07
2019-03-15T08:03:24.875Z,12.57
2019-03-15T08:06:05.635Z,10.17
2019-03-15T08:08:46.479Z,11.87
2019-03-15T08:11:27.038Z,14.27
2019-03-15T08:14:07.811Z,9.83
2019-03-15T08:16:48.465Z,15.53
2019-03-15T08:19:29.354Z,17.57
2019-03-15T08:22:09.946Z,18.67
2019-03-15T08:24:51.895Z,19.97
2019-03-15T08:27:32.922Z,17.60
2019-03-15T08:30:13.741Z,20.90
2019-03-15T08:32:54.383Z,19.57
2019-03-15T08:35:24.504Z,16.00
2019-03-15T08:38:12.376Z,23.23
2019-03-15T08:41:00.508Z,15.90
2019-03-15T08:43:40.877Z,18.17
2019-03-15T08:46:21.854Z,20.07
2019-03-15T08:49:02.678Z,22.50
2019-03-15T08:51:43.656Z,23.60
2019-03-15T08:54:27.186Z,27.87
2019-03-15T09:00:20.553Z,25.40
2019-03-15T09:03:01.770Z,22.67
2019-03-15T09:05:42.773Z,21.43
2019-03-15T09:08:23.351Z,21.33
2019-03-15T09:11:04.061Z,20.63
2019-03-15T09:13:48.751Z,16.83
2019-03-15T09:16:28.066Z,20.67
2019-03-15T09:19:09.110Z,20.73
2019-03-15T09:21:49.669Z,25.80
2019-03-15T09:24:30.280Z,17.30
2019-03-15T09:27:11.045Z,19.67
2019-03-15T09:29:52.791Z,19.33
2019-03-15T09:32:33.794Z,22.77
2019-03-15T09:35:14.600Z,26.03
2019-03-15T09:37:55.358Z,22.47
2019-03-15T09:40:36.306Z,19.80
2019-03-15T09:43:17.037Z,17.03
2019-03-15T09:45:57.688Z,17.00
2019-03-15T09:48:38.613Z,15.93
2019-03-15T09:51:19.222Z,17.27
2019-03-15T09:53:59.997Z,18.57
2019-03-15T09:56:40.469Z,15.80
2019-03-15T09:59:24.056Z,22.23
2019-03-15T10:02:07.692Z,18.43
2019-03-15T10:04:46.648Z,22.30
2019-03-15T10:07:37.680Z,13.73
2019-03-15T10:10:13.780Z,20.73
2019-03-15T10:13:05.195Z,16.97
2019-03-15T10:15:37.176Z,18.97
2019-03-15T10:18:17.577Z,14.77
2019-03-15T10:20:58.001Z,16.53
2019-03-15T10:23:38.812Z,20.23
2019-03-15T10:26:19.371Z,17.73
2019-03-15T10:29:10.156Z,18.53
2019-03-15T10:31:42.946Z,17.80
2019-03-15T10:34:23.560Z,17.67
2019-03-15T10:37:06.213Z,15.80
2019-03-15T10:39:47.296Z,16.20
2019-03-15T10:42:27.904Z,13.33
2019-03-15T10:45:08.635Z,16.20
2019-03-15T10:47:49.337Z,14.27
2019-03-15T10:50:30.599Z,17.23
2019-03-15T10:53:11.355Z,12.43
2019-03-15T10:56:00.082Z,15.33
2019-03-15T10:58:34.220Z,15.03
2019-03-15T11:01:15.077Z,19.10
2019-03-15T11:03:56.391Z,15.87
2019-03-15T11:06:24.874Z,14.77
2019-03-15T11:09:12.751Z,13.73
2019-03-15T11:11:41.232Z,16.00
2019-03-15T11:17:24.008Z,14.00
2019-03-15T11:20:05.109Z,21.63
2019-03-15T11:22:33.564Z,18.10
2019-03-15T11:25:21.362Z,12.47
2019-03-15T11:28:10.544Z,22.10
2019-03-15T11:30:54.320Z,14.50
2019-03-15T11:33:23.306Z,15.47
2019-03-15T11:36:11.392Z,22.17
2019-03-15T11:38:52.614Z,15.07
2019-03-15T11:41:21.506Z,16.40
2019-03-15T11:44:09.363Z,15.67
2019-03-15T11:46:57.194Z,17.77
2019-03-15T11:49:38.101Z,18.00
2019-03-15T11:52:20.308Z,18.67
2019-03-15T11:54:49.941Z,11.67
2019-03-15T11:57:38.692Z,12.87
2019-03-15T12:00:19.442Z,13.23
2019-03-15T12:03:00.405Z,10.27
2019-03-15T12:05:41.284Z,8.30
2019-03-15T12:08:09.768Z,16.23
2019-03-15T12:10:57.588Z,8.43
2019-03-15T12:13:45.380Z,13.30
2019-03-15T12:16:26.233Z,11.17
2019-03-15T12:19:06.977Z,12.40
2019-03-15T12:21:48.902Z,12.80
2019-03-15T12:24:17.457Z,12.43
2019-03-15T12:27:05.343Z,15.03
2019-03-15T12:30:12.439Z,10.40
2019-03-15T12:32:52.964Z,14.97
2019-03-15T12:35:33.737Z,11.60
2019-03-15T12:38:14.447Z,11.40
2019-03-15T12:40:42.989Z,6.53
2019-03-15T12:43:30.781Z,10.70
2019-03-15T12:46:11.521Z,10.60
2019-03-15T12:51:31.678Z,6.80
2019-03-15T12:56:52.958Z,6.37
2019-03-15T12:59:23.185Z,8.77
2019-03-15T13:02:03.630Z,3.27
2019-03-15T13:04:44.970Z,2.97
2019-03-15T13:07:25.883Z,9.43
2019-03-15T13:10:06.423Z,6.70
2019-03-15T13:12:47.625Z,4.83
2019-03-15T13:15:31.803Z,9.77
2019-03-15T13:18:11.480Z,9.30
2019-03-15T13:20:40.006Z,5.87
2019-03-15T13:23:27.830Z,5.87
2019-03-15T13:26:09.023Z,7.37
2019-03-15T13:28:49.571Z,7.87
2019-03-15T13:37:44.668Z,7.80
2019-03-15T13:40:25.639Z,6.97
2019-03-15T13:43:06.651Z,8.67
2019-03-15T13:45:47.388Z,12.90
2019-03-15T13:48:28.160Z,7.63
2019-03-15T13:51:09.094Z,6.60
2019-03-15T13:53:50.121Z,7.83
2019-03-15T13:56:30.917Z,11.50
2019-03-15T13:59:11.360Z,6.90
2019-03-15T14:01:52.716Z,11.03
2019-03-15T14:04:21.251Z,6.60
2019-03-15T14:07:09.185Z,9.10
2019-03-15T14:09:57.887Z,8.53
2019-03-15T14:12:45.702Z,8.90
2019-03-15T14:15:26.747Z,8.93
2019-03-15T14:18:07.686Z,14.00
2019-03-15T14:20:48.404Z,11.07
2019-03-15T14:23:29.576Z,7.47
2019-03-15T14:26:10.296Z,10.40
2019-03-15T14:28:51.007Z,12.93
2019-03-15T14:31:32.091Z,11.90
2019-03-15T14:34:12.663Z,10.70
2019-03-15T14:36:53.196Z,12.90
2019-03-15T14:39:33.940Z,9.63
2019-03-15T14:42:14.848Z,15.97
2019-03-15T14:44:43.955Z,13.77
2019-03-15T14:47:33.215Z,15.07
2019-03-15T14:50:15.051Z,15.77
2019-03-15T14:52:55.874Z,11.33
2019-03-15T14:55:36.855Z,12.27
2019-03-15T14:58:17.670Z,13.73
2019-03-15T15:01:00.101Z,12.07
2019-03-15T15:03:41.249Z,15.27
2019-03-15T15:06:09.829Z,14.87
2019-03-15T15:08:57.736Z,14.53
2019-03-15T15:11:48.651Z,15.87
2019-03-15T15:14:29.944Z,14.47
2019-03-15T15:17:10.396Z,12.33
2019-03-15T15:19:51.193Z,17.47
2019-03-15T15:22:31.661Z,17.63
2019-03-15T15:25:12.505Z,14.60
2019-03-15T15:28:03.904Z,12.23
2019-03-15T15:30:23.663Z,18.93
2019-03-15T15:32:53.845Z,16.83
2019-03-15T15:35:41.932Z,15.10
2019-03-15T15:38:22.918Z,14.60
2019-03-15T15:41:03.479Z,12.17
2019-03-15T15:43:44.464Z,10.77
2019-03-15T15:46:25.501Z,14.37
2019-03-15T15:49:06.730Z,11.40
2019-03-15T15:51:47.742Z,10.27
2019-03-15T15:54:28.562Z,11.00
2019-03-15T15:57:10.148Z,13.17
2019-03-15T15:59:51.477Z,12.67
2019-03-15T16:02:32.126Z,14.30
2019-03-15T16:05:13.376Z,13.00
2019-03-15T16:07:56.462Z,11.20
2019-03-15T16:10:35.898Z,15.93
2019-03-15T16:13:17.846Z,14.50
2019-03-15T16:15:46.437Z,13.03
2019-03-15T16:18:34.287Z,17.40
2019-03-15T16:21:15.876Z,10.93
2019-03-15T16:23:56.978Z,13.37
2019-03-15T16:26:37.700Z,11.73
2019-03-15T16:29:18.470Z,11.50
2019-03-15T16:31:59.146Z,13.43
2019-03-15T16:34:40.048Z,14.23
2019-03-15T16:37:20.613Z,12.03
2019-03-15T16:40:01.138Z,14.37
2019-03-15T16:42:42.135Z,12.30
2019-03-15T16:45:22.628Z,18.77
2019-03-15T16:48:03.309Z,13.30
2019-03-15T16:50:44.358Z,14.90
2019-03-15T16:53:25.267Z,16.20
2019-03-15T16:56:06.005Z,18.37
2019-03-15T16:58:46.602Z,18.23
2019-03-15T17:01:27.280Z,16.17
2019-03-15T17:04:07.891Z,15.97
2019-03-15T17:06:48.495Z,19.27
2019-03-15T17:09:17.066Z,19.50
2019-03-15T17:12:04.905Z,15.80
2019-03-15T17:15:04.408Z,20.93
2019-03-15T17:17:35.165Z,20.73
2019-03-15T17:20:16.778Z,16.27
2019-03-15T17:22:57.513Z,18.90
2019-03-15T17:25:38.470Z,21.10
2019-03-15T17:28:19.219Z,20.50
2019-03-15T17:31:09.889Z,21.30
2019-03-15T17:33:30.770Z,21.07
2019-03-15T17:36:18.649Z,22.77
2019-03-15T17:38:59.099Z,20.43
2019-03-15T17:41:39.796Z,21.70
2019-03-15T17:44:20.841Z,15.43
2019-03-15T17:47:02.016Z,20.53
2019-03-15T17:49:42.774Z,15.50
2019-03-15T17:52:11.346Z,16.90
2019-03-15T17:54:59.543Z,19.63
2019-03-15T17:57:47.440Z,16.30
2019-03-15T18:03:22.912Z,19.50
2019-03-15T18:06:05.350Z,17.30
2019-03-15T18:08:46.129Z,19.70
2019-03-15T18:11:27.109Z,17.50
2019-03-15T18:14:11.008Z,16.43
2019-03-15T18:16:51.236Z,19.70
2019-03-15T18:19:31.825Z,20.20
2019-03-15T18:22:12.684Z,21.90
2019-03-15T18:24:53.550Z,17.97
2019-03-15T18:27:34.463Z,22.00
2019-03-15T18:30:15.403Z,18.37
2019-03-15T18:32:57.356Z,19.77
2019-03-15T18:35:38.715Z,26.10
2019-03-15T18:38:28.400Z,18.83
2019-03-15T18:41:16.539Z,19.20
2019-03-15T18:43:57.474Z,17.87
2019-03-15T18:46:37.982Z,19.60
2019-03-15T18:49:19.046Z,20.97
2019-03-15T18:51:59.764Z,23.67
2019-03-15T18:54:40.999Z,21.77
2019-03-15T18:57:22.094Z,22.63
2019-03-15T19:00:02.748Z,17.30
2019-03-15T19:02:31.313Z,17.37
2019-03-15T19:05:19.242Z,15.30
2019-03-15T19:07:47.786Z,17.23
2019-03-15T19:10:38.580Z,22.40
2019-03-15T19:13:18.383Z,20.20
2019-03-15T19:15:59.184Z,18.90
2019-03-15T19:18:27.790Z,19.80
2019-03-15T19:21:15.736Z,16.93
2019-03-15T19:23:56.434Z,18.70
2019-03-15T19:26:37.156Z,14.70
2019-03-15T19:29:17.974Z,13.60
2019-03-15T19:31:58.612Z,27.93
2019-03-15T19:34:27.097Z,14.03
2019-03-15T19:37:14.917Z,17.33
2019-03-15T19:39:55.528Z,19.97
2019-03-15T19:42:36.195Z,17.47
2019-03-15T19:45:16.728Z,14.97
2019-03-15T19:47:58.138Z,18.37
2019-03-15T19:50:39.917Z,9.37
2019-03-15T19:53:20.414Z,15.47
2019-03-15T19:56:01.224Z,19.57
2019-03-15T19:58:42.669Z,15.70
2019-03-15T20:01:11.367Z,13.00
2019-03-15T20:03:59.191Z,20.67
2019-03-15T20:06:49.762Z,18.07
2019-03-15T20:09:17.277Z,15.20
2019-03-15T20:11:57.921Z,13.33
2019-03-15T20:14:40.423Z,23.07
2019-03-15T20:17:08.985Z,20.43
2019-03-15T20:19:56.820Z,21.93
2019-03-15T20:22:44.682Z,17.93
2019-03-15T20:25:53.238Z,21.03
2019-03-15T20:28:41.716Z,21.47
2019-03-15T20:31:22.355Z,19.67
2019-03-15T20:34:02.766Z,16.47
2019-03-15T20:36:43.577Z,18.87
2019-03-15T20:39:24.397Z,17.47
2019-03-15T20:42:05.190Z,20.83
2019-03-15T20:44:45.816Z,25.77
2019-03-15T20:47:26.602Z,18.20
2019-03-15T20:50:07.501Z,20.00
2019-03-15T20:52:48.372Z,21.93
2019-03-15T20:55:29.354Z,18.70
2019-03-15T20:58:10.049Z,21.23
2019-03-15T21:00:50.614Z,19.37
2019-03-15T21:03:31.571Z,15.93
2019-03-15T21:06:12.520Z,16.43
2019-03-15T21:08:53.465Z,25.13
2019-03-15T21:11:34.231Z,17.60
2019-03-15T21:14:15.130Z,17.73
2019-03-15T21:16:55.904Z,22.57
2019-03-15T21:19:36.748Z,25.53
2019-03-15T21:22:05.473Z,18.70
2019-03-15T21:24:53.353Z,24.03
2019-03-15T21:27:33.928Z,21.53
2019-03-15T21:30:15.200Z,16.53
2019-03-15T21:32:56.436Z,21.17
2019-03-15T21:35:37.998Z,18.80
2019-03-15T21:38:18.909Z,20.53
2019-03-15T21:40:59.811Z,21.83
2019-03-15T21:43:28.318Z,29.27
2019-03-15T21:46:16.484Z,27.20
2019-03-15T21:48:56.943Z,18.50
2019-03-15T21:51:38.152Z,27.97
2019-03-15T21:54:06.920Z,29.33
2019-03-15T21:56:54.766Z,17.83
2019-03-15T21:59:42.633Z,21.90
2019-03-15T22:02:30.455Z,17.90
2019-03-15T22:05:11.535Z,26.23
2019-03-15T22:07:40.176Z,26.17
2019-03-15T22:10:28.061Z,23.77
2019-03-15T22:13:15.884Z,23.57
2019-03-15T22:15:56.919Z,22.93
2019-03-15T22:18:37.688Z,20.93
2019-03-15T22:21:18.611Z,25.50
2019-03-15T22:23:59.648Z,20.27
2019-03-15T22:26:40.558Z,25.40
2019-03-15T22:29:21.523Z,25.50
2019-03-15T22:32:02.421Z,23.67
2019-03-15T22:34:43.537Z,25.50
2019-03-15T22:37:24.364Z,19.93
2019-03-15T22:40:05.525Z,29.90
2019-03-15T22:42:45.994Z,19.10
2019-03-15T22:45:26.674Z,25.70
2019-03-15T22:48:07.515Z,20.47
2019-03-15T22:50:47.966Z,20.57
2019-03-15T22:53:28.671Z,21.87
2019-03-15T22:56:09.649Z,16.27
2019-03-15T22:58:49.961Z,17.83
2019-03-15T23:01:30.812Z,16.17
2019-03-15T23:04:11.542Z,18.27
2019-03-15T23:06:52.505Z,17.57
2019-03-15T23:09:33.322Z,22.57
2019-03-15T23:12:14.644Z,17.23
2019-03-15T23:14:55.444Z,12.63
2019-03-15T23:17:36.201Z,17.83
2019-03-15T23:20:16.606Z,14.93
2019-03-15T23:22:57.285Z,17.03
2019-03-15T23:25:37.944Z,13.87
2019-03-15T23:28:18.308Z,18.13
2019-03-15T23:30:58.911Z,13.70
2019-03-15T23:33:40.305Z,13.90
2019-03-15T23:36:20.928Z,13.90
2019-03-15T23:38:49.605Z,14.40
2019-03-15T23:41:37.453Z,13.30
2019-03-15T23:44:25.327Z,15.80
2019-03-15T23:47:06.524Z,8.93
2019-03-15T23:49:46.922Z,15.53
2019-03-15T23:52:27.772Z,12.57
2019-03-15T23:55:08.335Z,12.27
2019-03-15T23:57:48.575Z,12.53
